createdAt,value
2019-02-24T00:00:59.822Z,24.83
2019-02-24T00:03:29.440Z,18.60
2019-02-24T00:05:59.241Z,21.60
2019-02-24T00:08:41.094Z,22.00
2019-02-24T00:11:10.533Z,22.20
2019-02-24T00:13:40.044Z,19.43
2019-02-24T00:16:09.391Z,24.00
2019-02-24T00:18:38.754Z,21.67
2019-02-24T00:21:08.164Z,21.07
2019-02-24T00:23:37.634Z,26.43
2019-02-24T00:26:07.685Z,22.10
2019-02-24T00:28:36.960Z,24.20
2019-02-24T00:31:06.397Z,27.97
2019-02-24T00:33:37.033Z,18.97
2019-02-24T00:36:06.741Z,27.23
2019-02-24T00:38:36.225Z,32.47
2019-02-24T00:41:05.577Z,24.20
2019-02-24T00:43:34.892Z,27.93
2019-02-24T00:46:04.704Z,23.17
2019-02-24T00:48:34.806Z,21.57
2019-02-24T00:51:04.141Z,23.90
2019-02-24T00:53:33.609Z,24.83
2019-02-24T00:56:02.967Z,19.70
2019-02-24T00:58:32.339Z,24.27
2019-02-24T01:01:01.669Z,21.87
2019-02-24T01:03:31.612Z,21.07
2019-02-24T01:06:00.922Z,24.33
2019-02-24T01:08:30.248Z,20.50
2019-02-24T01:10:59.868Z,21.67
2019-02-24T01:13:29.283Z,23.80
2019-02-24T01:15:58.568Z,25.07
2019-02-24T01:18:28.027Z,24.20
2019-02-24T01:20:57.282Z,22.47
2019-02-24T01:23:32.538Z,22.47
2019-02-24T01:26:01.930Z,24.13
2019-02-24T01:28:31.168Z,23.00
2019-02-24T01:31:00.433Z,20.97
2019-02-24T01:33:30.709Z,29.23
2019-02-24T01:36:00.462Z,27.50
2019-02-24T01:38:31.527Z,31.73
2019-02-24T01:41:00.963Z,30.90
2019-02-24T01:43:30.728Z,30.73
2019-02-24T01:46:00.681Z,29.93
2019-02-24T01:48:29.958Z,27.00
2019-02-24T01:50:59.213Z,28.27
2019-02-24T01:53:28.728Z,27.23
2019-02-24T01:55:58.039Z,31.33
2019-02-24T01:58:34.929Z,23.07
2019-02-24T02:00:58.631Z,23.87
2019-02-24T02:03:27.969Z,25.33
2019-02-24T02:05:57.703Z,23.87
2019-02-24T02:08:27.092Z,25.60
2019-02-24T02:10:57.159Z,25.17
2019-02-24T02:13:26.624Z,22.93
2019-02-24T02:15:55.918Z,21.30
2019-02-24T02:18:25.288Z,25.07
2019-02-24T02:20:54.661Z,26.50
2019-02-24T02:23:24.049Z,21.77
2019-02-24T02:25:53.356Z,27.60
2019-02-24T02:28:43.841Z,26.83
2019-02-24T02:31:07.052Z,26.13
2019-02-24T02:33:42.393Z,27.07
2019-02-24T02:36:11.779Z,25.77
2019-02-24T02:38:41.884Z,24.70
2019-02-24T02:41:14.826Z,29.53
2019-02-24T02:43:44.179Z,28.43
2019-02-24T02:46:14.132Z,32.13
2019-02-24T02:48:43.600Z,28.53
2019-02-24T02:51:13.408Z,27.77
2019-02-24T02:53:45.222Z,25.07
2019-02-24T02:56:15.154Z,23.67
2019-02-24T02:58:53.633Z,26.27
2019-02-24T03:01:20.078Z,25.03
2019-02-24T03:03:49.988Z,24.83
2019-02-24T03:06:47.934Z,27.63
2019-02-24T03:09:17.777Z,23.80
2019-02-24T03:11:50.732Z,28.07
2019-02-24T03:14:20.157Z,25.90
2019-02-24T03:16:49.745Z,27.27
2019-02-24T03:19:20.042Z,26.10
2019-02-24T03:21:49.356Z,26.60
2019-02-24T03:24:18.805Z,24.77
2019-02-24T03:26:49.197Z,26.53
2019-02-24T03:29:18.610Z,27.83
2019-02-24T03:31:48.915Z,28.17
2019-02-24T03:34:18.469Z,26.13
2019-02-24T03:36:47.823Z,34.17
2019-02-24T03:39:17.285Z,25.97
2019-02-24T03:41:46.552Z,25.90
2019-02-24T03:44:20.517Z,29.83
2019-02-24T03:46:50.123Z,27.67
2019-02-24T03:49:20.176Z,26.17
2019-02-24T03:51:49.422Z,31.57
2019-02-24T03:54:19.524Z,29.00
2019-02-24T03:56:51.010Z,26.20
2019-02-24T03:59:20.457Z,29.73
2019-02-24T04:01:51.786Z,28.53
2019-02-24T04:04:21.326Z,29.43
2019-02-24T04:06:52.552Z,30.57
2019-02-24T04:09:21.956Z,23.40
2019-02-24T04:11:53.549Z,29.77
2019-02-24T04:14:23.002Z,27.97
2019-02-24T04:16:52.266Z,28.87
2019-02-24T04:19:23.202Z,32.97
2019-02-24T04:21:52.657Z,28.80
2019-02-24T04:24:21.941Z,34.70
2019-02-24T04:26:51.262Z,27.17
2019-02-24T04:29:24.933Z,34.53
2019-02-24T04:31:53.018Z,29.33
2019-02-24T04:34:22.397Z,31.70
2019-02-24T04:36:51.665Z,31.27
2019-02-24T04:39:21.033Z,33.07
2019-02-24T04:41:50.909Z,22.40
2019-02-24T04:44:20.829Z,28.57
2019-02-24T04:46:50.622Z,30.93
2019-02-24T04:49:19.982Z,27.87
2019-02-24T04:51:49.269Z,27.87
2019-02-24T04:54:18.685Z,32.33
2019-02-24T04:56:49.687Z,28.53
2019-02-24T04:59:19.144Z,31.37
2019-02-24T05:01:49.180Z,33.07
2019-02-24T05:04:19.052Z,30.97
2019-02-24T05:06:48.858Z,34.47
2019-02-24T05:09:18.169Z,37.43
2019-02-24T05:11:47.452Z,34.97
2019-02-24T05:14:17.513Z,30.43
2019-02-24T05:16:46.750Z,30.63
2019-02-24T05:19:16.325Z,33.73
2019-02-24T05:21:45.812Z,29.53
2019-02-24T05:24:15.677Z,29.93
2019-02-24T05:26:45.948Z,30.60
2019-02-24T05:29:15.316Z,33.07
2019-02-24T05:31:44.836Z,31.07
2019-02-24T05:34:15.166Z,28.13
2019-02-24T05:36:44.479Z,28.53
2019-02-24T05:39:13.831Z,31.17
2019-02-24T05:41:43.150Z,29.27
2019-02-24T05:44:14.332Z,32.30
2019-02-24T05:46:43.593Z,27.13
2019-02-24T05:49:12.982Z,25.77
2019-02-24T05:51:42.245Z,27.63
2019-02-24T05:54:11.809Z,28.57
2019-02-24T05:56:41.088Z,28.33
2019-02-24T05:59:10.593Z,32.83
2019-02-24T06:01:40.341Z,35.83
2019-02-24T06:04:12.162Z,30.67
2019-02-24T06:06:41.488Z,33.00
2019-02-24T06:09:11.593Z,28.07
2019-02-24T06:11:40.853Z,32.03
2019-02-24T06:14:10.972Z,27.90
2019-02-24T06:16:40.230Z,32.97
2019-02-24T06:19:09.587Z,26.13
2019-02-24T06:21:38.868Z,29.43
2019-02-24T06:24:08.296Z,30.30
2019-02-24T06:26:37.553Z,34.10
2019-02-24T06:29:08.879Z,31.03
2019-02-24T06:31:38.259Z,31.13
2019-02-24T06:34:07.636Z,28.13
2019-02-24T06:36:36.908Z,40.50
2019-02-24T06:39:08.632Z,33.27
2019-02-24T06:41:37.954Z,31.63
2019-02-24T06:44:08.122Z,29.53
2019-02-24T06:46:37.469Z,31.80
2019-02-24T06:49:06.727Z,27.73
2019-02-24T06:51:36.202Z,31.97
2019-02-24T06:54:05.660Z,36.67
2019-02-24T06:56:35.269Z,33.13
2019-02-24T06:59:04.649Z,29.60
2019-02-24T07:01:33.945Z,35.07
2019-02-24T07:04:03.352Z,29.07
2019-02-24T07:06:32.616Z,27.97
2019-02-24T07:09:01.972Z,32.83
2019-02-24T07:11:32.580Z,33.70
2019-02-24T07:14:02.519Z,32.00
2019-02-24T07:16:31.829Z,30.43
2019-02-24T07:19:01.232Z,34.73
2019-02-24T07:21:30.541Z,29.90
2019-02-24T07:24:00.842Z,34.87
2019-02-24T07:26:32.707Z,32.07
2019-02-24T07:29:02.047Z,30.50
2019-02-24T07:31:31.424Z,29.40
2019-02-24T07:34:02.481Z,33.27
2019-02-24T07:36:31.749Z,32.40
2019-02-24T07:39:01.815Z,30.53
2019-02-24T07:41:31.849Z,29.97
2019-02-24T07:44:01.636Z,30.97
2019-02-24T07:46:30.913Z,31.83
2019-02-24T07:49:00.216Z,33.23
2019-02-24T07:51:29.562Z,29.97
2019-02-24T07:53:58.869Z,33.13
2019-02-24T07:56:28.265Z,32.57
2019-02-24T07:58:57.743Z,31.07
2019-02-24T08:01:26.981Z,30.63
2019-02-24T08:03:56.385Z,25.57
2019-02-24T08:06:25.711Z,28.53
2019-02-24T08:08:55.117Z,29.33
2019-02-24T08:11:25.646Z,32.43
2019-02-24T08:13:55.054Z,28.37
2019-02-24T08:16:24.359Z,30.70
2019-02-24T08:18:53.776Z,27.20
2019-02-24T08:21:23.156Z,25.33
2019-02-24T08:23:52.555Z,28.53
2019-02-24T08:26:21.812Z,31.80
2019-02-24T08:28:51.217Z,28.60
2019-02-24T08:31:20.498Z,30.80
2019-02-24T08:33:49.879Z,29.00
2019-02-24T08:36:20.236Z,27.37
2019-02-24T08:38:50.980Z,23.97
2019-02-24T08:41:21.529Z,27.27
2019-02-24T08:43:50.748Z,47.70
2019-02-24T08:46:21.307Z,27.63
2019-02-24T08:48:50.757Z,30.27
2019-02-24T08:51:20.059Z,31.07
2019-02-24T08:53:49.622Z,28.67
2019-02-24T08:56:21.189Z,30.83
2019-02-24T08:58:50.542Z,32.57
2019-02-24T09:01:19.921Z,26.43
2019-02-24T09:03:49.604Z,25.43
2019-02-24T09:06:19.092Z,25.53
2019-02-24T09:08:48.389Z,27.07
2019-02-24T09:11:17.890Z,28.13
2019-02-24T09:13:47.142Z,26.67
2019-02-24T09:16:19.104Z,26.87
2019-02-24T09:18:47.821Z,26.20
2019-02-24T09:21:17.988Z,29.07
2019-02-24T09:23:47.503Z,24.43
2019-02-24T09:26:20.237Z,28.50
2019-02-24T09:28:50.887Z,24.37
2019-02-24T09:31:21.020Z,27.43
2019-02-24T09:33:50.480Z,25.17
2019-02-24T09:36:19.893Z,26.57
2019-02-24T09:38:49.301Z,25.93
2019-02-24T09:41:19.363Z,29.03
2019-02-24T09:43:48.929Z,26.47
2019-02-24T09:46:20.924Z,27.20
2019-02-24T09:48:50.965Z,27.10
2019-02-24T09:51:20.309Z,27.83
2019-02-24T09:53:49.600Z,25.83
2019-02-24T09:56:19.765Z,26.77
2019-02-24T09:58:49.216Z,25.70
2019-02-24T10:01:22.209Z,21.93
2019-02-24T10:03:51.785Z,30.47
2019-02-24T10:06:21.245Z,22.37
2019-02-24T10:08:51.955Z,25.00
2019-02-24T10:11:22.073Z,24.50
2019-02-24T10:13:51.856Z,25.10
2019-02-24T10:16:21.299Z,21.23
2019-02-24T10:18:52.374Z,25.90
2019-02-24T10:21:22.642Z,23.47
2019-02-24T10:23:51.925Z,19.37
2019-02-24T10:26:21.928Z,24.37
2019-02-24T10:28:51.474Z,20.43
2019-02-24T10:31:21.312Z,21.83
2019-02-24T10:33:53.309Z,20.53
2019-02-24T10:36:23.337Z,20.47
2019-02-24T10:38:52.620Z,18.57
2019-02-24T10:41:22.500Z,17.80
2019-02-24T10:43:51.870Z,28.47
2019-02-24T10:46:23.235Z,18.53
2019-02-24T10:48:52.654Z,16.67
2019-02-24T10:51:21.949Z,20.47
2019-02-24T10:53:51.470Z,20.67
2019-02-24T10:56:22.352Z,19.67
2019-02-24T10:58:53.138Z,16.07
2019-02-24T11:01:29.754Z,16.70
2019-02-24T11:03:54.310Z,15.63
2019-02-24T11:06:23.760Z,17.73
2019-02-24T11:08:53.272Z,16.23
2019-02-24T11:11:23.263Z,14.77
2019-02-24T11:13:52.758Z,16.17
2019-02-24T11:16:22.196Z,14.33
2019-02-24T11:18:51.441Z,17.20
2019-02-24T11:21:20.897Z,19.33
2019-02-24T11:23:50.245Z,17.00
2019-02-24T11:26:19.602Z,26.43
2019-02-24T11:28:49.766Z,16.53
2019-02-24T11:31:19.413Z,13.93
2019-02-24T11:33:49.168Z,10.93
2019-02-24T11:36:19.434Z,27.43
2019-02-24T11:38:48.977Z,14.53
2019-02-24T11:41:18.375Z,13.23
2019-02-24T11:43:47.795Z,11.90
2019-02-24T11:46:17.189Z,14.60
2019-02-24T11:52:38.833Z,10.67
2019-02-24T11:55:08.874Z,14.77
2019-02-24T11:57:40.173Z,12.00
2019-02-24T12:00:09.695Z,15.07
2019-02-24T12:02:42.356Z,15.17
2019-02-24T12:05:11.685Z,13.07
2019-02-24T12:07:43.127Z,16.20
2019-02-24T12:10:13.746Z,13.17
2019-02-24T12:12:43.041Z,15.47
2019-02-24T12:15:13.071Z,15.37
2019-02-24T12:17:42.343Z,14.93
2019-02-24T12:20:18.665Z,16.03
2019-02-24T12:22:48.797Z,15.00
2019-02-24T12:25:18.651Z,15.80
2019-02-24T12:27:48.036Z,15.90
2019-02-24T12:30:17.487Z,14.47
2019-02-24T12:32:46.929Z,13.00
2019-02-24T12:35:16.417Z,13.97
2019-02-24T12:37:45.802Z,23.53
2019-02-24T12:40:15.295Z,13.23
2019-02-24T12:42:46.683Z,14.87
2019-02-24T12:45:17.015Z,13.57
2019-02-24T12:47:46.333Z,16.53
2019-02-24T12:50:16.476Z,18.47
2019-02-24T12:52:46.957Z,16.33
2019-02-24T12:55:16.967Z,20.30
2019-02-24T12:57:46.340Z,24.07
2019-02-24T13:00:18.041Z,15.20
2019-02-24T13:02:47.379Z,16.13
2019-02-24T13:05:18.261Z,16.13
2019-02-24T13:08:00.879Z,12.87
2019-02-24T13:10:30.177Z,16.13
2019-02-24T13:12:59.477Z,12.30
2019-02-24T13:15:29.750Z,17.83
2019-02-24T13:17:59.033Z,16.90
2019-02-24T13:20:28.415Z,18.27
2019-02-24T13:22:58.021Z,14.77
2019-02-24T13:25:27.454Z,16.97
2019-02-24T13:27:56.740Z,16.27
2019-02-24T13:30:26.861Z,12.53
2019-02-24T13:32:56.232Z,15.67
2019-02-24T13:35:28.313Z,16.07
2019-02-24T13:37:57.552Z,14.33
2019-02-24T13:40:27.028Z,14.07
2019-02-24T13:42:56.309Z,16.17
2019-02-24T13:45:26.954Z,15.03
2019-02-24T13:47:56.440Z,19.23
2019-02-24T13:50:25.691Z,11.63
2019-02-24T13:52:55.259Z,16.87
2019-02-24T13:55:24.574Z,13.90
2019-02-24T13:57:53.914Z,14.13
2019-02-24T14:00:23.264Z,12.40
2019-02-24T14:02:52.630Z,16.00
2019-02-24T14:05:23.325Z,27.07
2019-02-24T14:07:52.596Z,12.73
2019-02-24T14:10:22.476Z,14.93
2019-02-24T14:12:52.242Z,16.27
2019-02-24T14:15:21.724Z,13.97
2019-02-24T14:17:51.170Z,12.70
2019-02-24T14:20:21.132Z,13.80
2019-02-24T14:22:50.594Z,17.97
2019-02-24T14:25:21.313Z,13.87
2019-02-24T14:27:50.710Z,15.23
2019-02-24T14:30:21.109Z,14.97
2019-02-24T14:32:51.169Z,13.37
2019-02-24T14:35:21.919Z,14.80
2019-02-24T14:37:51.585Z,12.10
2019-02-24T14:40:20.980Z,10.47
2019-02-24T14:42:50.300Z,17.47
2019-02-24T14:45:19.832Z,16.43
2019-02-24T14:47:49.121Z,14.60
2019-02-24T14:50:18.545Z,17.30
2019-02-24T14:52:50.165Z,14.27
2019-02-24T14:55:19.701Z,12.93
2019-02-24T14:57:49.425Z,15.57
2019-02-24T15:00:18.753Z,14.67
2019-02-24T15:02:48.238Z,11.33
2019-02-24T15:05:17.594Z,14.97
2019-02-24T15:07:46.867Z,15.23
2019-02-24T15:10:16.502Z,15.33
2019-02-24T15:12:45.893Z,13.27
2019-02-24T15:15:17.140Z,12.33
2019-02-24T15:17:46.609Z,30.90
2019-02-24T15:20:20.100Z,15.90
2019-02-24T15:22:48.767Z,68.37
2019-02-24T15:25:18.376Z,23.13
2019-02-24T15:27:47.757Z,20.23
2019-02-24T15:30:20.539Z,26.30
2019-02-24T15:32:51.884Z,30.67
2019-02-24T15:35:21.194Z,23.87
2019-02-24T15:37:50.494Z,13.90
2019-02-24T15:40:19.925Z,48.30
2019-02-24T15:42:49.320Z,22.20
2019-02-24T15:45:18.760Z,16.93
2019-02-24T15:47:48.636Z,28.37
2019-02-24T15:50:18.061Z,16.33
2019-02-24T15:52:47.338Z,17.93
2019-02-24T15:55:17.315Z,27.07
2019-02-24T15:57:47.055Z,12.17
2019-02-24T16:00:18.637Z,11.77
2019-02-24T16:02:48.019Z,10.67
2019-02-24T16:05:19.895Z,11.57
2019-02-24T16:07:51.703Z,10.60
2019-02-24T16:10:21.129Z,15.50
2019-02-24T16:12:50.695Z,16.13
2019-02-24T16:15:21.578Z,14.57
2019-02-24T16:17:52.088Z,19.77
2019-02-24T16:20:23.427Z,13.70
2019-02-24T16:22:58.106Z,11.83
2019-02-24T16:25:27.511Z,12.57
2019-02-24T16:27:56.995Z,11.33
2019-02-24T16:30:28.633Z,14.00
2019-02-24T16:32:58.297Z,9.83
2019-02-24T16:35:27.730Z,12.70
2019-02-24T16:37:58.876Z,8.77
2019-02-24T16:40:28.261Z,7.67
2019-02-24T16:42:57.548Z,8.27
2019-02-24T16:45:27.078Z,7.90
2019-02-24T16:47:56.342Z,8.80
2019-02-24T16:50:32.363Z,9.00
2019-02-24T16:53:02.271Z,9.27
2019-02-24T16:55:31.969Z,7.43
2019-02-24T16:58:03.563Z,10.50
2019-02-24T17:00:33.302Z,11.30
2019-02-24T17:03:02.565Z,10.40
2019-02-24T17:05:32.804Z,9.80
2019-02-24T17:08:02.082Z,10.77
2019-02-24T17:10:31.864Z,12.23
2019-02-24T17:13:01.958Z,7.57
2019-02-24T17:15:31.992Z,9.00
2019-02-24T17:18:01.260Z,9.17
2019-02-24T17:20:36.431Z,8.13
2019-02-24T17:23:06.348Z,14.23
2019-02-24T17:25:38.662Z,7.10
2019-02-24T17:28:08.930Z,11.13
2019-02-24T17:30:39.097Z,9.73
2019-02-24T17:33:08.427Z,7.23
2019-02-24T17:35:38.546Z,6.97
2019-02-24T17:38:07.982Z,7.37
2019-02-24T17:40:37.589Z,9.00
2019-02-24T17:43:07.335Z,9.03
2019-02-24T17:45:39.704Z,6.20
2019-02-24T17:48:09.052Z,12.53
2019-02-24T17:50:39.986Z,9.90
2019-02-24T17:53:09.301Z,7.00
2019-02-24T17:55:38.787Z,7.40
2019-02-24T17:58:08.090Z,5.57
2019-02-24T18:00:49.064Z,6.20
2019-02-24T18:03:19.032Z,3.97
2019-02-24T18:05:49.076Z,6.93
2019-02-24T18:08:28.157Z,24.67
2019-02-24T18:10:55.368Z,8.60
2019-02-24T18:13:25.113Z,6.47
2019-02-24T18:15:54.445Z,10.73
2019-02-24T18:18:23.889Z,7.10
2019-02-24T18:20:53.336Z,7.47
2019-02-24T18:23:22.694Z,5.87
2019-02-24T18:25:56.429Z,5.77
2019-02-24T18:28:29.150Z,7.93
2019-02-24T18:30:58.647Z,5.60
2019-02-24T18:33:27.974Z,6.70
2019-02-24T18:36:02.760Z,5.73
2019-02-24T18:38:39.357Z,6.43
2019-02-24T18:41:08.869Z,7.33
2019-02-24T18:43:40.753Z,16.13
2019-02-24T18:46:10.123Z,13.40
2019-02-24T18:48:39.726Z,7.70
2019-02-24T18:51:09.271Z,3.80
2019-02-24T18:53:39.419Z,8.90
2019-02-24T18:56:11.116Z,5.73
2019-02-24T18:58:41.900Z,5.63
2019-02-24T19:01:11.513Z,6.50
2019-02-24T19:03:43.977Z,3.57
2019-02-24T19:06:17.219Z,3.23
2019-02-24T19:08:48.071Z,4.03
2019-02-24T19:11:21.826Z,4.70
2019-02-24T19:13:51.490Z,3.30
2019-02-24T19:16:20.977Z,2.73
2019-02-24T19:18:50.334Z,6.33
2019-02-24T19:21:19.775Z,13.53
2019-02-24T19:23:49.059Z,3.20
2019-02-24T19:26:19.484Z,5.50
2019-02-24T19:28:48.834Z,4.47
2019-02-24T19:31:19.682Z,7.07
2019-02-24T19:33:49.171Z,6.33
2019-02-24T19:36:18.559Z,4.70
2019-02-24T19:38:48.568Z,6.20
2019-02-24T19:41:19.986Z,3.97
2019-02-24T19:43:49.336Z,5.53
2019-02-24T19:46:22.058Z,6.67
2019-02-24T19:48:51.329Z,6.10
2019-02-24T19:51:21.006Z,5.10
2019-02-24T19:53:50.449Z,2.93
2019-02-24T19:56:19.766Z,3.23
2019-02-24T19:58:49.248Z,6.83
2019-02-24T20:01:21.294Z,3.90
2019-02-24T20:03:50.658Z,6.83
2019-02-24T20:06:20.157Z,5.40
2019-02-24T20:08:49.427Z,10.60
2019-02-24T20:11:21.059Z,17.27
2019-02-24T20:13:50.309Z,6.40
2019-02-24T20:16:19.746Z,5.50
2019-02-24T20:18:49.126Z,8.10
2019-02-24T20:21:18.685Z,6.37
2019-02-24T20:23:48.734Z,5.60
2019-02-24T20:26:18.631Z,8.63
2019-02-24T20:28:47.941Z,6.00
2019-02-24T20:31:23.026Z,4.10
2019-02-24T20:33:52.406Z,5.10
2019-02-24T20:36:21.862Z,4.70
2019-02-24T20:38:51.410Z,9.50
2019-02-24T20:41:20.844Z,6.27
2019-02-24T20:43:52.366Z,5.40
2019-02-24T20:46:22.135Z,8.47
2019-02-24T20:48:51.626Z,4.20
2019-02-24T20:51:20.932Z,3.83
2019-02-24T20:53:52.328Z,7.70
2019-02-24T20:56:22.061Z,7.03
2019-02-24T20:58:51.657Z,7.33
2019-02-24T21:01:21.009Z,5.43
2019-02-24T21:03:52.502Z,5.97
2019-02-24T21:06:22.557Z,7.73
2019-02-24T21:08:52.565Z,7.00
2019-02-24T21:11:24.580Z,7.50
2019-02-24T21:13:54.898Z,5.03
2019-02-24T21:16:26.042Z,5.80
2019-02-24T21:18:55.598Z,6.03
2019-02-24T21:21:27.491Z,5.43
2019-02-24T21:23:59.133Z,5.13
2019-02-24T21:26:29.014Z,7.80
2019-02-24T21:28:58.277Z,5.07
2019-02-24T21:31:28.271Z,6.17
2019-02-24T21:33:57.649Z,6.00
2019-02-24T21:36:27.210Z,4.13
2019-02-24T21:38:57.214Z,4.27
2019-02-24T21:41:26.640Z,4.30
2019-02-24T21:43:56.119Z,10.73
2019-02-24T21:46:25.592Z,12.47
2019-02-24T21:48:56.964Z,4.83
2019-02-24T21:51:27.590Z,6.20
2019-02-24T21:53:58.405Z,4.40
2019-02-24T21:56:27.705Z,7.27
2019-02-24T21:58:57.212Z,3.90
2019-02-24T22:01:27.237Z,4.27
2019-02-24T22:03:56.756Z,5.87
2019-02-24T22:06:27.344Z,4.57
2019-02-24T22:08:56.590Z,4.63
2019-02-24T22:11:26.630Z,4.07
2019-02-24T22:13:56.049Z,5.00
2019-02-24T22:16:25.541Z,5.40
2019-02-24T22:18:54.894Z,5.07
2019-02-24T22:21:24.591Z,6.60
2019-02-24T22:23:53.973Z,5.30
2019-02-24T22:26:23.391Z,5.67
2019-02-24T22:28:52.862Z,5.37
2019-02-24T22:31:22.765Z,6.93
2019-02-24T22:33:53.170Z,4.50
2019-02-24T22:36:22.558Z,4.80
2019-02-24T22:38:51.853Z,7.30
2019-02-24T22:41:21.168Z,5.00
2019-02-24T22:43:51.185Z,5.10
2019-02-24T22:46:20.524Z,5.83
2019-02-24T22:48:50.226Z,8.43
2019-02-24T22:51:21.110Z,4.50
2019-02-24T22:53:50.613Z,4.47
2019-02-24T22:56:19.910Z,3.73
2019-02-24T22:58:49.401Z,29.50
2019-02-24T23:01:30.811Z,4.43
2019-02-24T23:04:05.801Z,3.80
2019-02-24T23:06:35.276Z,4.40
2019-02-24T23:09:09.102Z,6.27
2019-02-24T23:11:38.539Z,4.53
2019-02-24T23:14:07.812Z,4.80
2019-02-24T23:16:38.851Z,5.23
2019-02-24T23:19:08.192Z,3.40
2019-02-24T23:21:37.713Z,4.13
2019-02-24T23:24:07.072Z,4.43
2019-02-24T23:26:37.524Z,5.10
2019-02-24T23:29:06.980Z,4.00
2019-02-24T23:31:39.052Z,3.77
2019-02-24T23:34:09.061Z,5.00
2019-02-24T23:36:38.489Z,4.43
2019-02-24T23:39:12.326Z,5.93
2019-02-24T23:41:41.753Z,5.50
2019-02-24T23:44:11.588Z,6.63
2019-02-24T23:46:40.977Z,6.00
2019-02-24T23:49:12.032Z,5.80
2019-02-24T23:51:41.464Z,7.53
2019-02-24T23:54:11.129Z,3.73
2019-02-24T23:56:40.505Z,3.80
2019-02-24T23:59:09.791Z,4.93
